Terminal Aerodrome Forecast
Issued by NWS

Home | Current Version | Previous Version | Text Only | Print | Product List | Glossary Off
Versions: 1 2 3 4 5 6 7 8 9 10 11 12 13 14 15 16 17 18

000
FTUS43 KICT 301733
TAFSLN
TAF
KSLN 301733Z 3018/3118 36014G21KT P6SM BKN025
     FM302100 01013KT P6SM SCT025
     FM310200 06005KT P6SM SCT030
     FM310900 VRB03KT 5SM BR BKN020
     FM311500 10011KT P6SM SCT025=

USA.gov is the U.S. government's official web portal to all federal, state and local government web resources and services.